sensor_id;sensor_type;location;lat;lon;timestamp;P1;durP1;ratioP1;P2;durP2;ratioP2
22713;SDS011;11524;50.846;4.326;2022-08-18T00:01:44;30.05;;;26.85;;
22713;SDS011;11524;50.846;4.326;2022-08-18T00:04:41;29.20;;;26.17;;
22713;SDS011;11524;50.846;4.326;2022-08-18T00:13:42;29.70;;;26.45;;
22713;SDS011;11524;50.846;4.326;2022-08-18T00:16:10;31.13;;;27.83;;
22713;SDS011;11524;50.846;4.326;2022-08-18T00:26:57;30.67;;;27.48;;
22713;SDS011;11524;50.846;4.326;2022-08-18T00:29:23;32.47;;;29.08;;
22713;SDS011;11524;50.846;4.326;2022-08-18T01:52:52;35.83;;;31.80;;
22713;SDS011;11524;50.846;4.326;2022-08-18T01:55:18;38.95;;;32.75;;
22713;SDS011;11524;50.846;4.326;2022-08-18T01:57:44;40.05;;;34.38;;
22713;SDS011;11524;50.846;4.326;2022-08-18T02:00:15;37.65;;;33.53;;
22713;SDS011;11524;50.846;4.326;2022-08-18T02:02:46;36.03;;;32.07;;
22713;SDS011;11524;50.846;4.326;2022-08-18T02:05:20;37.22;;;32.40;;
22713;SDS011;11524;50.846;4.326;2022-08-18T02:07:53;39.65;;;33.45;;
22713;SDS011;11524;50.846;4.326;2022-08-18T02:10:19;39.03;;;34.33;;
22713;SDS011;11524;50.846;4.326;2022-08-18T02:12:48;38.42;;;32.58;;
22713;SDS011;11524;50.846;4.326;2022-08-18T02:15:14;39.05;;;32.25;;
22713;SDS011;11524;50.846;4.326;2022-08-18T02:17:43;42.30;;;35.45;;
22713;SDS011;11524;50.846;4.326;2022-08-18T02:20:11;40.45;;;33.05;;
22713;SDS011;11524;50.846;4.326;2022-08-18T02:22:39;39.58;;;32.92;;
22713;SDS011;11524;50.846;4.326;2022-08-18T02:25:05;37.30;;;32.15;;
22713;SDS011;11524;50.846;4.326;2022-08-18T02:27:31;38.45;;;31.88;;
22713;SDS011;11524;50.846;4.326;2022-08-18T02:30:05;39.28;;;33.05;;
22713;SDS011;11524;50.846;4.326;2022-08-18T02:32:33;35.33;;;31.20;;
22713;SDS011;11524;50.846;4.326;2022-08-18T02:34:59;38.17;;;33.10;;
22713;SDS011;11524;50.846;4.326;2022-08-18T02:37:25;37.17;;;32.25;;
22713;SDS011;11524;50.846;4.326;2022-08-18T02:40:28;36.53;;;30.88;;
22713;SDS011;11524;50.846;4.326;2022-08-18T02:42:46;35.13;;;30.23;;
22713;SDS011;11524;50.846;4.326;2022-08-18T02:48:26;36.45;;;31.83;;
22713;SDS011;11524;50.846;4.326;2022-08-18T03:12:31;35.65;;;29.65;;
22713;SDS011;11524;50.846;4.326;2022-08-18T03:14:58;33.70;;;28.85;;
22713;SDS011;11524;50.846;4.326;2022-08-18T03:17:26;35.85;;;28.25;;
22713;SDS011;11524;50.846;4.326;2022-08-18T03:27:42;35.28;;;28.63;;
22713;SDS011;11524;50.846;4.326;2022-08-18T03:32:51;32.58;;;26.42;;
22713;SDS011;11524;50.846;4.326;2022-08-18T03:35:25;32.22;;;27.85;;
22713;SDS011;11524;50.846;4.326;2022-08-18T03:38:17;32.70;;;27.52;;
22713;SDS011;11524;50.846;4.326;2022-08-18T03:40:50;35.58;;;28.73;;
22713;SDS011;11524;50.846;4.326;2022-08-18T03:43:16;39.60;;;30.35;;
22713;SDS011;11524;50.846;4.326;2022-08-18T03:45:42;33.75;;;27.73;;
22713;SDS011;11524;50.846;4.326;2022-08-18T03:48:08;34.95;;;27.92;;
22713;SDS011;11524;50.846;4.326;2022-08-18T03:50:34;36.15;;;28.50;;
22713;SDS011;11524;50.846;4.326;2022-08-18T03:53:00;34.15;;;27.90;;
22713;SDS011;11524;50.846;4.326;2022-08-18T03:55:29;34.17;;;28.35;;
22713;SDS011;11524;50.846;4.326;2022-08-18T03:57:59;35.38;;;28.70;;
22713;SDS011;11524;50.846;4.326;2022-08-18T04:00:29;34.53;;;28.08;;
22713;SDS011;11524;50.846;4.326;2022-08-18T04:02:56;34.72;;;28.30;;
22713;SDS011;11524;50.846;4.326;2022-08-18T04:05:23;33.15;;;26.98;;
22713;SDS011;11524;50.846;4.326;2022-08-18T04:07:50;33.05;;;27.70;;
22713;SDS011;11524;50.846;4.326;2022-08-18T04:10:18;35.80;;;28.40;;
22713;SDS011;11524;50.846;4.326;2022-08-18T04:57:39;37.13;;;30.27;;
22713;SDS011;11524;50.846;4.326;2022-08-18T05:00:10;33.45;;;28.63;;
22713;SDS011;11524;50.846;4.326;2022-08-18T05:02:40;32.65;;;28.20;;
22713;SDS011;11524;50.846;4.326;2022-08-18T05:05:08;37.92;;;30.77;;
22713;SDS011;11524;50.846;4.326;2022-08-18T05:07:41;33.40;;;29.30;;
22713;SDS011;11524;50.846;4.326;2022-08-18T05:10:09;38.72;;;32.47;;
22713;SDS011;11524;50.846;4.326;2022-08-18T05:35:59;39.35;;;32.70;;
22713;SDS011;11524;50.846;4.326;2022-08-18T05:38:32;38.10;;;32.33;;
22713;SDS011;11524;50.846;4.326;2022-08-18T05:44:01;37.67;;;31.73;;
22713;SDS011;11524;50.846;4.326;2022-08-18T05:49:23;38.67;;;32.63;;
22713;SDS011;11524;50.846;4.326;2022-08-18T05:52:02;39.08;;;32.65;;
22713;SDS011;11524;50.846;4.326;2022-08-18T05:54:46;37.38;;;30.73;;
22713;SDS011;11524;50.846;4.326;2022-08-18T05:57:54;38.75;;;30.60;;
22713;SDS011;11524;50.846;4.326;2022-08-18T06:00:35;34.72;;;28.15;;
22713;SDS011;11524;50.846;4.326;2022-08-18T06:03:12;31.77;;;26.85;;
22713;SDS011;11524;50.846;4.326;2022-08-18T06:08:26;31.45;;;24.95;;
22713;SDS011;11524;50.846;4.326;2022-08-18T06:11:07;29.43;;;25.43;;
22713;SDS011;11524;50.846;4.326;2022-08-18T06:13:40;31.08;;;25.65;;
22713;SDS011;11524;50.846;4.326;2022-08-18T06:26:42;32.45;;;28.63;;
22713;SDS011;11524;50.846;4.326;2022-08-18T06:38:01;37.20;;;31.38;;
22713;SDS011;11524;50.846;4.326;2022-08-18T06:40:47;39.13;;;33.03;;
22713;SDS011;11524;50.846;4.326;2022-08-18T06:43:14;37.42;;;32.67;;
22713;SDS011;11524;50.846;4.326;2022-08-18T06:45:41;38.15;;;30.83;;
22713;SDS011;11524;50.846;4.326;2022-08-18T07:32:14;28.20;;;22.15;;
22713;SDS011;11524;50.846;4.326;2022-08-18T07:34:48;33.13;;;26.60;;
22713;SDS011;11524;50.846;4.326;2022-08-18T07:37:27;33.85;;;26.77;;
22713;SDS011;11524;50.846;4.326;2022-08-18T07:39:55;28.27;;;22.38;;
22713;SDS011;11524;50.846;4.326;2022-08-18T07:42:36;36.13;;;23.40;;
22713;SDS011;11524;50.846;4.326;2022-08-18T07:47:52;33.20;;;22.55;;
22713;SDS011;11524;50.846;4.326;2022-08-18T08:16:45;22.33;;;16.83;;
22713;SDS011;11524;50.846;4.326;2022-08-18T08:25:18;20.35;;;16.40;;
22713;SDS011;11524;50.846;4.326;2022-08-18T08:30:32;15.65;;;14.00;;
22713;SDS011;11524;50.846;4.326;2022-08-18T08:38:09;16.50;;;10.38;;
22713;SDS011;11524;50.846;4.326;2022-08-18T08:43:41;18.63;;;13.95;;
22713;SDS011;11524;50.846;4.326;2022-08-18T08:48:58;17.83;;;13.68;;
22713;SDS011;11524;50.846;4.326;2022-08-18T08:52:06;19.67;;;12.02;;
22713;SDS011;11524;50.846;4.326;2022-08-18T09:15:06;20.08;;;14.10;;
22713;SDS011;11524;50.846;4.326;2022-08-18T09:33:49;14.55;;;12.63;;
22713;SDS011;11524;50.846;4.326;2022-08-18T09:36:58;15.73;;;10.88;;
22713;SDS011;11524;50.846;4.326;2022-08-18T09:39:43;16.27;;;11.07;;
22713;SDS011;11524;50.846;4.326;2022-08-18T09:42:45;17.67;;;10.60;;
22713;SDS011;11524;50.846;4.326;2022-08-18T09:53:33;12.75;;;10.52;;
22713;SDS011;11524;50.846;4.326;2022-08-18T10:44:04;11.40;;;8.55;;
22713;SDS011;11524;50.846;4.326;2022-08-18T10:46:43;11.38;;;8.05;;
22713;SDS011;11524;50.846;4.326;2022-08-18T10:52:02;10.20;;;8.32;;
22713;SDS011;11524;50.846;4.326;2022-08-18T11:07:30;11.23;;;9.75;;
22713;SDS011;11524;50.846;4.326;2022-08-18T11:09:59;11.10;;;9.70;;
22713;SDS011;11524;50.846;4.326;2022-08-18T11:15:59;12.07;;;9.23;;
22713;SDS011;11524;50.846;4.326;2022-08-18T11:24:30;11.23;;;9.55;;
22713;SDS011;11524;50.846;4.326;2022-08-18T11:27:04;11.00;;;9.90;;
22713;SDS011;11524;50.846;4.326;2022-08-18T11:29:42;10.73;;;9.70;;
22713;SDS011;11524;50.846;4.326;2022-08-18T11:40:20;10.32;;;9.27;;
22713;SDS011;11524;50.846;4.326;2022-08-18T11:53:54;10.15;;;9.25;;
22713;SDS011;11524;50.846;4.326;2022-08-18T12:01:53;9.32;;;8.43;;
22713;SDS011;11524;50.846;4.326;2022-08-18T12:04:21;9.98;;;8.98;;
22713;SDS011;11524;50.846;4.326;2022-08-18T12:12:55;11.50;;;10.40;;
22713;SDS011;11524;50.846;4.326;2022-08-18T12:15:31;10.98;;;9.98;;
22713;SDS011;11524;50.846;4.326;2022-08-18T12:17:58;11.68;;;10.52;;
22713;SDS011;11524;50.846;4.326;2022-08-18T12:20:24;10.68;;;9.10;;
22713;SDS011;11524;50.846;4.326;2022-08-18T12:22:56;10.80;;;9.90;;
22713;SDS011;11524;50.846;4.326;2022-08-18T12:28:38;11.10;;;10.10;;
22713;SDS011;11524;50.846;4.326;2022-08-18T12:31:03;11.00;;;10.00;;
22713;SDS011;11524;50.846;4.326;2022-08-18T12:33:31;12.40;;;9.25;;
22713;SDS011;11524;50.846;4.326;2022-08-18T12:35:58;10.88;;;9.82;;
22713;SDS011;11524;50.846;4.326;2022-08-18T12:38:24;12.45;;;10.85;;
22713;SDS011;11524;50.846;4.326;2022-08-18T12:40:50;13.48;;;11.40;;
22713;SDS011;11524;50.846;4.326;2022-08-18T12:43:17;12.13;;;10.93;;
22713;SDS011;11524;50.846;4.326;2022-08-18T12:46:05;11.52;;;10.50;;
22713;SDS011;11524;50.846;4.326;2022-08-18T12:57:17;12.07;;;10.70;;
22713;SDS011;11524;50.846;4.326;2022-08-18T12:59:48;12.98;;;10.65;;
22713;SDS011;11524;50.846;4.326;2022-08-18T13:02:14;11.63;;;10.52;;
22713;SDS011;11524;50.846;4.326;2022-08-18T13:04:45;12.48;;;10.60;;
22713;SDS011;11524;50.846;4.326;2022-08-18T13:07:27;11.80;;;10.70;;
22713;SDS011;11524;50.846;4.326;2022-08-18T13:10:13;13.52;;;11.48;;
22713;SDS011;11524;50.846;4.326;2022-08-18T13:12:41;12.43;;;11.13;;
22713;SDS011;11524;50.846;4.326;2022-08-18T13:15:35;14.55;;;12.13;;
22713;SDS011;11524;50.846;4.326;2022-08-18T13:18:04;13.18;;;11.80;;
22713;SDS011;11524;50.846;4.326;2022-08-18T13:20:45;16.83;;;13.07;;
22713;SDS011;11524;50.846;4.326;2022-08-18T13:23:34;13.70;;;12.40;;
22713;SDS011;11524;50.846;4.326;2022-08-18T13:26:03;12.38;;;11.23;;
22713;SDS011;11524;50.846;4.326;2022-08-18T13:28:34;12.82;;;11.50;;
22713;SDS011;11524;50.846;4.326;2022-08-18T13:31:14;11.68;;;10.48;;
22713;SDS011;11524;50.846;4.326;2022-08-18T13:34:01;16.25;;;13.02;;
22713;SDS011;11524;50.846;4.326;2022-08-18T13:36:37;13.52;;;11.20;;
22713;SDS011;11524;50.846;4.326;2022-08-18T13:39:10;12.18;;;10.90;;
22713;SDS011;11524;50.846;4.326;2022-08-18T13:41:37;13.95;;;10.90;;
22713;SDS011;11524;50.846;4.326;2022-08-18T13:44:27;9.85;;;8.85;;
22713;SDS011;11524;50.846;4.326;2022-08-18T13:47:12;10.18;;;8.57;;
22713;SDS011;11524;50.846;4.326;2022-08-18T13:49:40;12.15;;;9.45;;
22713;SDS011;11524;50.846;4.326;2022-08-18T13:52:05;10.63;;;9.48;;
22713;SDS011;11524;50.846;4.326;2022-08-18T13:54:34;11.02;;;9.52;;
22713;SDS011;11524;50.846;4.326;2022-08-18T13:57:00;10.95;;;9.82;;
22713;SDS011;11524;50.846;4.326;2022-08-18T13:59:29;10.20;;;9.20;;
22713;SDS011;11524;50.846;4.326;2022-08-18T14:01:57;10.60;;;9.60;;
22713;SDS011;11524;50.846;4.326;2022-08-18T14:04:29;10.67;;;9.40;;
22713;SDS011;11524;50.846;4.326;2022-08-18T14:06:58;10.63;;;8.93;;
22713;SDS011;11524;50.846;4.326;2022-08-18T14:09:25;10.13;;;9.13;;
22713;SDS011;11524;50.846;4.326;2022-08-18T14:11:54;11.23;;;9.50;;
22713;SDS011;11524;50.846;4.326;2022-08-18T14:14:21;9.93;;;8.70;;
22713;SDS011;11524;50.846;4.326;2022-08-18T14:16:47;10.60;;;9.57;;
22713;SDS011;11524;50.846;4.326;2022-08-18T14:19:14;12.20;;;9.23;;
22713;SDS011;11524;50.846;4.326;2022-08-18T14:21:59;11.07;;;9.98;;
22713;SDS011;11524;50.846;4.326;2022-08-18T14:24:44;11.07;;;9.93;;
22713;SDS011;11524;50.846;4.326;2022-08-18T14:27:29;12.38;;;10.43;;
22713;SDS011;11524;50.846;4.326;2022-08-18T14:29:58;12.05;;;10.82;;
22713;SDS011;11524;50.846;4.326;2022-08-18T14:32:25;13.05;;;11.73;;
22713;SDS011;11524;50.846;4.326;2022-08-18T14:34:53;14.88;;;13.27;;
22713;SDS011;11524;50.846;4.326;2022-08-18T14:37:22;13.20;;;11.88;;
22713;SDS011;11524;50.846;4.326;2022-08-18T14:39:48;14.95;;;12.32;;
22713;SDS011;11524;50.846;4.326;2022-08-18T14:42:15;13.30;;;12.00;;
22713;SDS011;11524;50.846;4.326;2022-08-18T14:44:43;15.90;;;14.30;;
22713;SDS011;11524;50.846;4.326;2022-08-18T14:47:09;13.88;;;12.45;;
22713;SDS011;11524;50.846;4.326;2022-08-18T14:49:35;14.50;;;13.10;;
22713;SDS011;11524;50.846;4.326;2022-08-18T14:52:04;14.70;;;13.25;;
22713;SDS011;11524;50.846;4.326;2022-08-18T14:54:30;15.10;;;13.52;;
22713;SDS011;11524;50.846;4.326;2022-08-18T14:57:21;17.17;;;15.38;;
22713;SDS011;11524;50.846;4.326;2022-08-18T14:59:46;16.38;;;14.75;;
22713;SDS011;11524;50.846;4.326;2022-08-18T15:02:12;15.57;;;13.80;;
22713;SDS011;11524;50.846;4.326;2022-08-18T15:04:38;14.93;;;13.52;;
22713;SDS011;11524;50.846;4.326;2022-08-18T15:07:04;16.30;;;14.60;;
22713;SDS011;11524;50.846;4.326;2022-08-18T15:09:31;15.30;;;13.80;;
22713;SDS011;11524;50.846;4.326;2022-08-18T15:11:57;15.05;;;13.55;;
22713;SDS011;11524;50.846;4.326;2022-08-18T15:14:25;15.25;;;13.80;;
22713;SDS011;11524;50.846;4.326;2022-08-18T15:16:59;19.52;;;14.65;;
22713;SDS011;11524;50.846;4.326;2022-08-18T15:19:45;15.55;;;14.05;;
22713;SDS011;11524;50.846;4.326;2022-08-18T15:22:12;13.57;;;12.43;;
22713;SDS011;11524;50.846;4.326;2022-08-18T15:24:56;13.48;;;12.18;;
22713;SDS011;11524;50.846;4.326;2022-08-18T15:27:40;14.50;;;13.02;;
22713;SDS011;11524;50.846;4.326;2022-08-18T15:30:08;15.88;;;13.25;;
22713;SDS011;11524;50.846;4.326;2022-08-18T15:32:37;17.98;;;14.73;;
22713;SDS011;11524;50.846;4.326;2022-08-18T15:35:03;16.75;;;15.20;;
22713;SDS011;11524;50.846;4.326;2022-08-18T15:37:34;15.50;;;14.07;;
22713;SDS011;11524;50.846;4.326;2022-08-18T15:40:11;14.77;;;13.23;;
22713;SDS011;11524;50.846;4.326;2022-08-18T15:42:49;15.95;;;14.43;;
22713;SDS011;11524;50.846;4.326;2022-08-18T15:45:23;20.05;;;15.32;;
22713;SDS011;11524;50.846;4.326;2022-08-18T15:47:51;15.75;;;14.15;;
22713;SDS011;11524;50.846;4.326;2022-08-18T15:50:18;19.83;;;17.73;;
22713;SDS011;11524;50.846;4.326;2022-08-18T15:52:48;18.88;;;16.23;;
22713;SDS011;11524;50.846;4.326;2022-08-18T15:55:47;19.38;;;17.42;;
22713;SDS011;11524;50.846;4.326;2022-08-18T15:58:14;18.90;;;17.02;;
22713;SDS011;11524;50.846;4.326;2022-08-18T16:00:43;18.52;;;16.58;;
22713;SDS011;11524;50.846;4.326;2022-08-18T16:03:12;16.23;;;14.73;;
22713;SDS011;11524;50.846;4.326;2022-08-18T16:05:41;16.38;;;14.88;;
22713;SDS011;11524;50.846;4.326;2022-08-18T16:08:16;20.05;;;17.52;;
22713;SDS011;11524;50.846;4.326;2022-08-18T16:10:44;19.20;;;17.25;;
22713;SDS011;11524;50.846;4.326;2022-08-18T16:13:10;17.13;;;15.48;;
22713;SDS011;11524;50.846;4.326;2022-08-18T16:15:39;17.15;;;15.18;;
22713;SDS011;11524;50.846;4.326;2022-08-18T16:18:07;12.77;;;11.57;;
22713;SDS011;11524;50.846;4.326;2022-08-18T16:20:33;10.85;;;9.70;;
22713;SDS011;11524;50.846;4.326;2022-08-18T16:22:59;13.05;;;11.20;;
22713;SDS011;11524;50.846;4.326;2022-08-18T16:25:58;11.23;;;10.07;;
22713;SDS011;11524;50.846;4.326;2022-08-18T16:28:55;12.07;;;10.80;;
22713;SDS011;11524;50.846;4.326;2022-08-18T16:31:21;13.23;;;10.75;;
22713;SDS011;11524;50.846;4.326;2022-08-18T16:34:08;13.90;;;10.63;;
22713;SDS011;11524;50.846;4.326;2022-08-18T16:36:34;12.48;;;11.27;;
22713;SDS011;11524;50.846;4.326;2022-08-18T16:39:00;11.38;;;10.32;;
22713;SDS011;11524;50.846;4.326;2022-08-18T16:41:25;15.50;;;13.27;;
22713;SDS011;11524;50.846;4.326;2022-08-18T16:43:51;13.48;;;10.70;;
22713;SDS011;11524;50.846;4.326;2022-08-18T16:46:19;11.88;;;10.68;;
22713;SDS011;11524;50.846;4.326;2022-08-18T16:48:52;12.65;;;11.30;;
22713;SDS011;11524;50.846;4.326;2022-08-18T16:51:21;13.05;;;10.98;;
22713;SDS011;11524;50.846;4.326;2022-08-18T16:53:48;10.50;;;9.10;;
22713;SDS011;11524;50.846;4.326;2022-08-18T16:56:18;10.68;;;9.63;;
22713;SDS011;11524;50.846;4.326;2022-08-18T16:58:45;12.48;;;11.00;;
22713;SDS011;11524;50.846;4.326;2022-08-18T17:01:30;13.77;;;10.65;;
22713;SDS011;11524;50.846;4.326;2022-08-18T17:04:16;11.95;;;10.75;;
22713;SDS011;11524;50.846;4.326;2022-08-18T17:06:46;15.38;;;12.98;;
22713;SDS011;11524;50.846;4.326;2022-08-18T17:09:13;11.43;;;9.82;;
22713;SDS011;11524;50.846;4.326;2022-08-18T17:11:39;13.05;;;10.23;;
22713;SDS011;11524;50.846;4.326;2022-08-18T17:14:08;11.73;;;10.05;;
22713;SDS011;11524;50.846;4.326;2022-08-18T17:16:39;11.40;;;9.70;;
22713;SDS011;11524;50.846;4.326;2022-08-18T17:19:37;11.75;;;10.02;;
22713;SDS011;11524;50.846;4.326;2022-08-18T17:22:04;10.15;;;9.20;;
22713;SDS011;11524;50.846;4.326;2022-08-18T17:24:30;10.05;;;9.07;;
22713;SDS011;11524;50.846;4.326;2022-08-18T17:35:03;11.00;;;8.27;;
22713;SDS011;11524;50.846;4.326;2022-08-18T17:45:54;10.73;;;8.15;;
22713;SDS011;11524;50.846;4.326;2022-08-18T17:48:40;9.05;;;8.15;;
22713;SDS011;11524;50.846;4.326;2022-08-18T17:53:59;10.30;;;8.35;;
22713;SDS011;11524;50.846;4.326;2022-08-18T17:57:07;8.85;;;7.75;;
22713;SDS011;11524;50.846;4.326;2022-08-18T18:02:22;8.55;;;7.57;;
22713;SDS011;11524;50.846;4.326;2022-08-18T18:04:50;10.38;;;9.38;;
22713;SDS011;11524;50.846;4.326;2022-08-18T18:09:59;9.50;;;8.50;;
22713;SDS011;11524;50.846;4.326;2022-08-18T18:12:33;10.98;;;8.10;;
22713;SDS011;11524;50.846;4.326;2022-08-18T18:15:01;9.23;;;8.38;;
22713;SDS011;11524;50.846;4.326;2022-08-18T18:17:34;10.20;;;8.25;;
22713;SDS011;11524;50.846;4.326;2022-08-18T18:23:18;9.65;;;8.55;;
22713;SDS011;11524;50.846;4.326;2022-08-18T18:25:45;9.10;;;8.20;;
22713;SDS011;11524;50.846;4.326;2022-08-18T18:28:31;9.20;;;8.20;;
22713;SDS011;11524;50.846;4.326;2022-08-18T18:34:18;8.30;;;7.50;;
22713;SDS011;11524;50.846;4.326;2022-08-18T18:37:03;10.82;;;8.40;;
22713;SDS011;11524;50.846;4.326;2022-08-18T18:39:47;8.30;;;7.47;;
22713;SDS011;11524;50.846;4.326;2022-08-18T18:42:32;7.95;;;7.15;;
22713;SDS011;11524;50.846;4.326;2022-08-18T18:45:05;9.63;;;6.88;;
22713;SDS011;11524;50.846;4.326;2022-08-18T18:47:45;7.75;;;6.95;;
22713;SDS011;11524;50.846;4.326;2022-08-18T18:58:39;7.18;;;6.47;;
22713;SDS011;11524;50.846;4.326;2022-08-18T19:01:15;7.32;;;6.57;;
22713;SDS011;11524;50.846;4.326;2022-08-18T19:03:57;9.68;;;8.20;;
22713;SDS011;11524;50.846;4.326;2022-08-18T19:06:30;10.65;;;6.28;;
22713;SDS011;11524;50.846;4.326;2022-08-18T19:14:49;7.90;;;6.72;;
22713;SDS011;11524;50.846;4.326;2022-08-18T19:17:38;7.75;;;6.10;;
22713;SDS011;11524;50.846;4.326;2022-08-18T19:20:06;7.50;;;6.75;;
22713;SDS011;11524;50.846;4.326;2022-08-18T19:22:44;9.77;;;6.15;;
22713;SDS011;11524;50.846;4.326;2022-08-18T19:25:21;6.68;;;6.03;;
22713;SDS011;11524;50.846;4.326;2022-08-18T19:28:01;7.68;;;6.88;;
22713;SDS011;11524;50.846;4.326;2022-08-18T19:30:48;8.90;;;6.20;;
22713;SDS011;11524;50.846;4.326;2022-08-18T19:33:21;6.75;;;6.05;;
22713;SDS011;11524;50.846;4.326;2022-08-18T19:35:53;7.07;;;6.38;;
22713;SDS011;11524;50.846;4.326;2022-08-18T19:41:08;9.40;;;6.20;;
22713;SDS011;11524;50.846;4.326;2022-08-18T19:46:53;7.15;;;6.20;;
22713;SDS011;11524;50.846;4.326;2022-08-18T19:52:17;6.70;;;5.72;;
22713;SDS011;11524;50.846;4.326;2022-08-18T19:55:12;8.10;;;6.22;;
22713;SDS011;11524;50.846;4.326;2022-08-18T20:06:34;8.00;;;5.70;;
22713;SDS011;11524;50.846;4.326;2022-08-18T20:14:30;8.68;;;6.50;;
22713;SDS011;11524;50.846;4.326;2022-08-18T20:22:04;8.30;;;6.10;;
22713;SDS011;11524;50.846;4.326;2022-08-18T20:25:07;7.68;;;5.80;;
22713;SDS011;11524;50.846;4.326;2022-08-18T20:31:06;6.88;;;5.40;;
22713;SDS011;11524;50.846;4.326;2022-08-18T20:36:49;6.47;;;5.47;;
22713;SDS011;11524;50.846;4.326;2022-08-18T20:53:29;7.15;;;5.13;;
22713;SDS011;11524;50.846;4.326;2022-08-18T20:58:31;6.38;;;4.70;;
22713;SDS011;11524;50.846;4.326;2022-08-18T21:00:59;5.43;;;4.38;;
22713;SDS011;11524;50.846;4.326;2022-08-18T21:03:36;6.88;;;4.47;;
22713;SDS011;11524;50.846;4.326;2022-08-18T21:08:51;4.72;;;3.88;;
22713;SDS011;11524;50.846;4.326;2022-08-18T21:11:24;5.30;;;4.40;;
22713;SDS011;11524;50.846;4.326;2022-08-18T21:14:08;4.40;;;4.00;;
22713;SDS011;11524;50.846;4.326;2022-08-18T21:16:44;5.15;;;4.07;;
22713;SDS011;11524;50.846;4.326;2022-08-18T21:21:52;5.15;;;4.30;;
22713;SDS011;11524;50.846;4.326;2022-08-18T21:48:47;5.55;;;3.65;;
22713;SDS011;11524;50.846;4.326;2022-08-18T21:51:44;5.65;;;3.90;;
22713;SDS011;11524;50.846;4.326;2022-08-18T21:54:09;6.45;;;3.67;;
22713;SDS011;11524;50.846;4.326;2022-08-18T23:18:18;7.85;;;6.32;;
22713;SDS011;11524;50.846;4.326;2022-08-18T23:21:10;6.40;;;5.72;;
22713;SDS011;11524;50.846;4.326;2022-08-18T23:24:04;10.23;;;6.78;;
22713;SDS011;11524;50.846;4.326;2022-08-18T23:26:39;7.82;;;6.10;;
22713;SDS011;11524;50.846;4.326;2022-08-18T23:29:14;7.15;;;5.80;;
22713;SDS011;11524;50.846;4.326;2022-08-18T23:31:48;7.72;;;6.40;;
22713;SDS011;11524;50.846;4.326;2022-08-18T23:34:34;7.32;;;6.63;;
22713;SDS011;11524;50.846;4.326;2022-08-18T23:37:21;7.53;;;6.82;;
22713;SDS011;11524;50.846;4.326;2022-08-18T23:39:48;8.65;;;7.65;;
22713;SDS011;11524;50.846;4.326;2022-08-18T23:42:39;8.13;;;7.32;;
22713;SDS011;11524;50.846;4.326;2022-08-18T23:45:35;7.88;;;7.13;;
22713;SDS011;11524;50.846;4.326;2022-08-18T23:48:20;9.48;;;7.45;;
22713;SDS011;11524;50.846;4.326;2022-08-18T23:50:47;10.68;;;8.13;;
22713;SDS011;11524;50.846;4.326;2022-08-18T23:53:38;9.20;;;8.30;;
22713;SDS011;11524;50.846;4.326;2022-08-18T23:56:20;9.27;;;8.27;;
22713;SDS011;11524;50.846;4.326;2022-08-18T23:58:48;9.48;;;8.45;;
